createdAt,value
2022-09-12T00:00:13.680Z,19.78
2022-09-12T00:02:40.246Z,19.83
2022-09-12T00:05:07.434Z,20.02
2022-09-12T00:07:34.580Z,20.12
2022-09-12T00:10:01.232Z,20.12
2022-09-12T00:12:27.949Z,20.18
2022-09-12T00:14:54.767Z,20.13
2022-09-12T00:17:21.388Z,20.17
2022-09-12T00:19:48.265Z,20.15
2022-09-12T00:22:14.858Z,20.19
2022-09-12T00:24:41.632Z,20.01
2022-09-12T00:27:08.331Z,19.56
2022-09-12T00:29:35.737Z,19.54
2022-09-12T00:32:02.574Z,19.60
2022-09-12T00:34:29.232Z,19.56
2022-09-12T00:36:55.964Z,19.45
2022-09-12T00:39:22.609Z,19.22
2022-09-12T00:41:49.305Z,19.18
2022-09-12T00:44:16.015Z,19.23
2022-09-12T00:46:48.095Z,19.13
2022-09-12T00:49:16.254Z,19.20
2022-09-12T00:51:48.235Z,18.96
2022-09-12T00:54:19.664Z,19.13
2022-09-12T00:56:47.418Z,19.39
2022-09-12T00:59:47.016Z,19.13
2022-09-12T01:02:13.798Z,19.19
2022-09-12T01:04:41.297Z,19.07
2022-09-12T01:07:08.704Z,19.10
2022-09-12T01:09:37.077Z,19.13
2022-09-12T01:12:04.249Z,19.05
2022-09-12T01:14:31.598Z,19.11
2022-09-12T01:16:58.413Z,19.13
2022-09-12T01:19:54.682Z,19.11
2022-09-12T01:22:43.562Z,19.35
2022-09-12T01:25:28.671Z,19.45
2022-09-12T01:28:31.725Z,19.27
2022-09-12T01:31:08.398Z,18.92
2022-09-12T01:34:13.059Z,19.02
2022-09-12T01:37:04.442Z,18.99
2022-09-12T01:39:43.770Z,18.90
2022-09-12T01:42:32.426Z,19.01
2022-09-12T01:45:14.458Z,18.92
2022-09-12T01:47:45.705Z,19.06
2022-09-12T01:50:20.091Z,18.93
2022-09-12T01:52:57.514Z,19.16
2022-09-12T01:55:28.433Z,19.47
2022-09-12T01:57:59.475Z,19.52
2022-09-12T02:00:26.535Z,19.47
2022-09-12T02:03:03.147Z,19.49
2022-09-12T02:05:33.902Z,19.71
2022-09-12T02:08:25.042Z,19.49
2022-09-12T02:11:10.584Z,19.68
2022-09-12T02:13:37.408Z,19.49
2022-09-12T02:16:10.605Z,19.36
2022-09-12T02:18:45.723Z,19.37
2022-09-12T02:21:12.967Z,19.33
2022-09-12T02:23:43.467Z,19.57
2022-09-12T02:26:19.505Z,19.45
2022-09-12T02:28:47.572Z,19.20
2022-09-12T02:31:23.329Z,19.01
2022-09-12T02:33:59.387Z,18.99
2022-09-12T02:36:26.968Z,18.98
2022-09-12T02:38:53.667Z,18.87
2022-09-12T02:41:21.023Z,18.67
2022-09-12T02:43:48.428Z,18.41
2022-09-12T02:46:39.508Z,18.60
2022-09-12T02:49:07.373Z,18.65
2022-09-12T02:51:35.951Z,18.74
2022-09-12T02:54:03.574Z,19.02
2022-09-12T02:56:31.135Z,19.04
2022-09-12T02:59:02.651Z,18.95
2022-09-12T03:01:46.364Z,19.05
2022-09-12T03:04:46.367Z,19.00
2022-09-12T03:07:21.703Z,19.02
2022-09-12T03:10:07.138Z,18.84
2022-09-12T03:13:11.257Z,19.02
2022-09-12T03:15:48.428Z,19.05
2022-09-12T03:18:31.765Z,18.99
2022-09-12T03:21:11.745Z,19.03
2022-09-12T03:23:47.783Z,18.91
2022-09-12T03:26:21.305Z,18.82
2022-09-12T03:28:49.684Z,18.61
2022-09-12T03:31:18.617Z,18.67
2022-09-12T03:33:45.905Z,18.65
2022-09-12T03:36:31.526Z,18.83
2022-09-12T03:38:58.335Z,18.93
2022-09-12T03:41:25.082Z,18.93
2022-09-12T03:43:52.022Z,18.93
2022-09-12T03:46:18.726Z,18.87
2022-09-12T03:48:46.068Z,18.86
2022-09-12T03:51:13.019Z,18.71
2022-09-12T03:53:39.739Z,18.63
2022-09-12T03:56:08.598Z,18.65
2022-09-12T03:58:36.427Z,18.56
2022-09-12T04:01:12.627Z,18.58
2022-09-12T04:03:40.609Z,18.60
2022-09-12T04:06:08.230Z,18.56
2022-09-12T04:08:38.533Z,18.66
2022-09-12T04:11:07.088Z,18.66
2022-09-12T04:13:35.227Z,18.51
2022-09-12T04:16:02.190Z,18.43
2022-09-12T04:18:28.893Z,18.46
2022-09-12T04:20:55.592Z,18.54
2022-09-12T04:23:22.445Z,18.47
2022-09-12T04:25:56.873Z,18.41
2022-09-12T04:28:24.925Z,18.37
2022-09-12T04:30:52.116Z,18.38
2022-09-12T04:33:18.949Z,18.45
2022-09-12T04:35:45.617Z,18.48
2022-09-12T04:38:12.371Z,18.60
2022-09-12T04:40:39.085Z,18.47
2022-09-12T04:43:09.231Z,18.57
2022-09-12T04:45:37.995Z,18.33
2022-09-12T04:48:04.904Z,18.29
2022-09-12T04:50:31.592Z,18.22
2022-09-12T04:52:58.251Z,18.33
2022-09-12T04:55:25.393Z,18.40
2022-09-12T04:57:53.019Z,18.63
2022-09-12T05:00:20.769Z,18.59
2022-09-12T05:02:47.743Z,18.60
2022-09-12T05:05:14.450Z,18.58
2022-09-12T05:07:41.205Z,18.54
2022-09-12T05:10:09.456Z,18.45
2022-09-12T05:12:36.820Z,18.51
2022-09-12T05:15:04.692Z,18.43
2022-09-12T05:17:31.364Z,18.50
2022-09-12T05:19:58.131Z,18.33
2022-09-12T05:22:25.490Z,18.40
2022-09-12T05:24:52.166Z,18.44
2022-09-12T05:27:18.855Z,18.29
2022-09-12T05:29:45.642Z,18.21
2022-09-12T05:32:12.541Z,18.19
2022-09-12T05:34:40.331Z,18.14
2022-09-12T05:37:07.020Z,18.07
2022-09-12T05:39:33.808Z,18.19
2022-09-12T05:42:00.510Z,17.97
2022-09-12T05:44:27.149Z,18.20
2022-09-12T05:46:53.861Z,18.28
2022-09-12T05:49:21.610Z,18.26
2022-09-12T05:51:48.508Z,18.22
2022-09-12T05:54:18.238Z,17.95
2022-09-12T05:56:45.457Z,18.05
2022-09-12T05:59:20.833Z,17.93
2022-09-12T06:01:48.853Z,18.37
2022-09-12T06:04:16.037Z,18.73
2022-09-12T06:06:47.448Z,18.65
2022-09-12T06:09:16.100Z,18.62
2022-09-12T06:11:43.643Z,18.88
2022-09-12T06:14:12.285Z,18.97
2022-09-12T06:16:39.402Z,18.92
2022-09-12T06:19:32.331Z,18.88
2022-09-12T06:21:58.954Z,18.72
2022-09-12T06:24:25.833Z,18.75
2022-09-12T06:26:55.314Z,18.90
2022-09-12T06:29:23.133Z,19.07
2022-09-12T06:31:49.901Z,19.08
2022-09-12T06:34:16.812Z,19.17
2022-09-12T06:36:48.122Z,19.29
2022-09-12T06:39:17.523Z,19.39
2022-09-12T06:41:44.904Z,19.51
2022-09-12T06:46:48.068Z,19.66
2022-09-12T06:49:15.676Z,19.73
2022-09-12T06:51:42.915Z,19.88
2022-09-12T06:54:14.869Z,19.85
2022-09-12T06:56:41.870Z,20.02
2022-09-12T06:59:08.863Z,20.23
2022-09-12T07:01:35.630Z,20.03
2022-09-12T07:04:03.945Z,19.88
2022-09-12T07:06:39.982Z,19.93
2022-09-12T07:09:10.589Z,19.97
2022-09-12T07:11:38.965Z,20.34
2022-09-12T07:14:07.430Z,22.18
2022-09-12T07:16:37.303Z,23.98
2022-09-12T07:19:05.828Z,25.99
2022-09-12T07:21:33.005Z,26.39
2022-09-12T07:24:00.036Z,26.59
2022-09-12T07:26:28.119Z,26.96
2022-09-12T07:29:03.981Z,27.18
2022-09-12T07:31:40.067Z,26.00
2022-09-12T07:34:06.912Z,26.58
2022-09-12T07:36:34.356Z,26.16
2022-09-12T07:39:01.653Z,25.64
2022-09-12T07:41:30.517Z,26.84
2022-09-12T07:43:59.157Z,27.08
2022-09-12T07:46:28.216Z,26.47
2022-09-12T07:48:58.075Z,25.54
2022-09-12T07:51:26.200Z,24.72
2022-09-12T07:53:53.079Z,24.60
2022-09-12T07:56:22.010Z,24.14
2022-09-12T07:58:50.045Z,24.01
2022-09-12T08:01:19.420Z,24.85
2022-09-12T08:03:50.713Z,24.15
2022-09-12T08:06:24.570Z,23.75
2022-09-12T08:08:52.699Z,24.76
2022-09-12T08:11:20.832Z,24.69
2022-09-12T08:13:52.960Z,25.17
2022-09-12T08:16:23.100Z,25.45
2022-09-12T08:18:50.699Z,24.87
2022-09-12T08:21:26.213Z,24.37
2022-09-12T08:23:55.533Z,24.98
2022-09-12T08:26:23.498Z,24.93
2022-09-12T08:28:51.284Z,24.40
2022-09-12T08:31:21.626Z,24.47
2022-09-12T08:33:48.491Z,24.57
2022-09-12T08:36:17.657Z,24.96
2022-09-12T08:38:46.431Z,24.79
2022-09-12T08:41:25.142Z,24.61
2022-09-12T08:44:03.566Z,24.59
2022-09-12T08:46:39.203Z,25.23
2022-09-12T08:49:10.286Z,25.19
2022-09-12T08:51:38.287Z,24.55
2022-09-12T08:54:10.074Z,25.04
2022-09-12T08:56:37.895Z,24.49
2022-09-12T08:59:04.694Z,24.07
2022-09-12T09:01:35.829Z,24.44
2022-09-12T09:04:41.676Z,24.71
2022-09-12T09:07:39.434Z,24.60
2022-09-12T09:10:26.703Z,24.80
2022-09-12T09:13:08.069Z,24.64
2022-09-12T09:15:58.524Z,24.47
2022-09-12T09:18:29.038Z,25.08
2022-09-12T09:21:03.763Z,24.36
2022-09-12T09:23:34.637Z,24.21
2022-09-12T09:26:09.601Z,24.46
2022-09-12T09:28:43.593Z,25.29
2022-09-12T09:31:21.846Z,25.36
2022-09-12T09:33:55.459Z,25.04
2022-09-12T09:36:40.663Z,24.90
2022-09-12T09:39:13.567Z,24.96
2022-09-12T09:42:10.433Z,24.99
2022-09-12T09:44:37.600Z,24.90
2022-09-12T09:47:05.331Z,25.44
2022-09-12T09:49:34.700Z,24.54
2022-09-12T09:52:02.135Z,24.94
2022-09-12T09:54:41.949Z,25.00
2022-09-12T09:57:37.086Z,25.11
2022-09-12T10:00:28.122Z,24.79
2022-09-12T10:03:13.938Z,25.19
2022-09-12T10:05:51.721Z,25.01
2022-09-12T10:08:27.814Z,25.47
2022-09-12T10:11:08.862Z,25.73
2022-09-12T10:13:39.230Z,25.47
2022-09-12T10:16:18.973Z,25.34
2022-09-12T10:18:46.094Z,25.56
2022-09-12T10:21:14.438Z,25.19
2022-09-12T10:23:42.217Z,25.48
2022-09-12T10:26:11.413Z,25.71
2022-09-12T10:28:51.705Z,25.20
2022-09-12T10:31:28.927Z,25.66
2022-09-12T10:33:57.957Z,25.11
2022-09-12T10:36:25.351Z,25.38
2022-09-12T10:38:55.073Z,25.53
2022-09-12T10:41:24.597Z,25.50
2022-09-12T10:43:51.551Z,25.22
2022-09-12T10:46:18.329Z,25.70
2022-09-12T10:48:49.818Z,25.81
2022-09-12T10:51:25.818Z,25.47
2022-09-12T10:54:03.424Z,25.11
2022-09-12T10:56:36.959Z,25.52
2022-09-12T10:59:22.338Z,25.54
2022-09-12T11:01:53.212Z,25.25
2022-09-12T11:04:46.409Z,25.37
2022-09-12T11:07:58.197Z,25.60
2022-09-12T11:11:00.533Z,25.71
2022-09-12T11:13:51.413Z,25.21
2022-09-12T11:16:27.661Z,25.20
2022-09-12T11:19:11.136Z,25.41
2022-09-12T11:22:22.350Z,25.27
2022-09-12T11:25:05.122Z,25.52
2022-09-12T11:27:54.035Z,25.48
2022-09-12T11:30:20.933Z,25.41
2022-09-12T11:33:08.190Z,25.44
2022-09-12T11:35:57.568Z,25.54
2022-09-12T11:38:43.203Z,25.35
2022-09-12T11:41:11.918Z,25.71
2022-09-12T11:43:41.889Z,25.63
2022-09-12T11:46:17.330Z,25.87
2022-09-12T11:49:17.526Z,25.85
2022-09-12T11:51:59.701Z,25.95
2022-09-12T11:54:49.114Z,25.65
2022-09-12T11:57:28.025Z,25.59
2022-09-12T12:00:10.159Z,25.53
2022-09-12T12:02:43.789Z,26.01
2022-09-12T12:05:26.813Z,25.86
2022-09-12T12:07:58.872Z,26.39
2022-09-12T12:10:48.828Z,26.54
2022-09-12T12:13:15.643Z,26.57
2022-09-12T12:15:51.843Z,25.96
2022-09-12T12:18:23.210Z,26.02
2022-09-12T12:20:51.009Z,26.02
2022-09-12T12:23:35.341Z,25.94
2022-09-12T12:26:04.762Z,26.56
2022-09-12T12:28:50.394Z,26.37
2022-09-12T12:31:18.571Z,26.57
2022-09-12T12:33:45.293Z,26.37
2022-09-12T12:36:41.898Z,26.09
2022-09-12T12:39:32.077Z,26.22
2022-09-12T12:41:59.907Z,26.18
2022-09-12T12:44:45.113Z,26.41
2022-09-12T12:47:18.067Z,26.51
2022-09-12T12:49:52.009Z,26.31
2022-09-12T12:52:19.384Z,26.56
2022-09-12T12:54:46.365Z,26.56
2022-09-12T12:57:13.055Z,26.67
2022-09-12T12:59:48.145Z,26.61
2022-09-12T13:02:23.382Z,26.23
2022-09-12T13:04:50.515Z,25.93
2022-09-12T13:07:30.371Z,26.31
2022-09-12T13:09:57.936Z,26.24
2022-09-12T13:12:28.474Z,26.33
2022-09-12T13:15:00.592Z,25.95
2022-09-12T13:17:40.189Z,26.54
2022-09-12T13:20:30.881Z,26.53
2022-09-12T13:22:58.250Z,26.38
2022-09-12T13:25:28.307Z,26.46
2022-09-12T13:28:06.339Z,26.52
2022-09-12T13:30:42.524Z,26.24
2022-09-12T13:33:41.716Z,25.99
2022-09-12T13:36:14.667Z,26.69
2022-09-12T13:38:58.098Z,26.34
2022-09-12T13:41:43.037Z,26.41
2022-09-12T13:44:13.291Z,26.15
2022-09-12T13:46:40.543Z,26.58
2022-09-12T13:49:24.032Z,26.62
2022-09-12T13:52:15.108Z,26.53
2022-09-12T13:54:44.926Z,26.43
2022-09-12T13:57:33.578Z,26.67
2022-09-12T14:00:02.098Z,27.02
2022-09-12T14:02:35.462Z,26.89
2022-09-12T14:05:12.155Z,27.10
2022-09-12T14:07:55.235Z,27.02
2022-09-12T14:10:28.229Z,26.76
2022-09-12T14:12:57.292Z,26.37
2022-09-12T14:15:27.215Z,26.45
2022-09-12T14:17:57.904Z,26.52
2022-09-12T14:20:26.548Z,26.55
2022-09-12T14:22:53.451Z,26.59
2022-09-12T14:25:22.843Z,26.92
2022-09-12T14:27:54.460Z,26.79
2022-09-12T14:30:33.297Z,26.78
2022-09-12T14:33:18.339Z,26.86
2022-09-12T14:35:49.787Z,26.78
2022-09-12T14:38:16.540Z,26.81
2022-09-12T14:40:51.130Z,26.60
2022-09-12T14:43:26.503Z,26.91
2022-09-12T14:46:06.402Z,26.86
2022-09-12T14:48:36.703Z,26.59
2022-09-12T14:51:04.180Z,26.79
2022-09-12T14:53:33.867Z,26.95
2022-09-12T14:56:09.580Z,26.90
2022-09-12T14:58:37.461Z,26.83
2022-09-12T15:01:07.371Z,27.02
2022-09-12T15:03:47.361Z,27.07
2022-09-12T15:06:39.791Z,26.62
2022-09-12T15:09:09.130Z,26.89
2022-09-12T15:11:35.835Z,26.80
2022-09-12T15:14:29.013Z,27.19
2022-09-12T15:16:55.782Z,27.04
2022-09-12T15:19:22.664Z,27.17
2022-09-12T15:21:49.317Z,26.98
2022-09-12T15:24:16.017Z,27.14
2022-09-12T15:26:42.779Z,26.92
2022-09-12T15:29:11.479Z,26.68
2022-09-12T15:31:40.289Z,26.93
2022-09-12T15:34:07.004Z,27.26
2022-09-12T15:36:33.907Z,26.99
2022-09-12T15:39:00.684Z,26.95
2022-09-12T15:41:32.092Z,27.35
2022-09-12T15:43:59.164Z,27.50
2022-09-12T15:46:26.213Z,27.08
2022-09-12T15:48:53.063Z,26.88
2022-09-12T15:51:22.079Z,27.28
2022-09-12T15:53:50.495Z,26.93
2022-09-12T15:56:18.857Z,26.99
2022-09-12T15:58:58.379Z,26.87
2022-09-12T16:01:26.499Z,27.01
2022-09-12T16:03:53.318Z,27.22
2022-09-12T16:06:20.043Z,27.18
2022-09-12T16:08:46.821Z,26.77
2022-09-12T16:11:27.085Z,27.21
2022-09-12T16:13:54.565Z,26.92
2022-09-12T16:16:21.673Z,27.02
2022-09-12T16:18:48.494Z,26.94
2022-09-12T16:21:15.983Z,26.82
2022-09-12T16:23:52.121Z,26.92
2022-09-12T16:26:19.645Z,26.82
2022-09-12T16:28:46.517Z,26.97
2022-09-12T16:31:14.239Z,27.01
2022-09-12T16:33:42.261Z,26.99
2022-09-12T16:36:13.047Z,26.87
2022-09-12T16:41:37.575Z,26.84
2022-09-12T16:44:07.434Z,26.74
2022-09-12T16:46:35.005Z,26.77
2022-09-12T16:49:02.252Z,26.62
2022-09-12T16:51:36.421Z,26.58
2022-09-12T16:54:08.852Z,26.49
2022-09-12T16:56:39.167Z,26.51
2022-09-12T16:59:09.385Z,26.59
2022-09-12T17:01:40.018Z,26.58
2022-09-12T17:04:07.748Z,26.49
2022-09-12T17:06:35.450Z,26.22
2022-09-12T17:09:04.357Z,26.33
2022-09-12T17:11:37.479Z,26.45
2022-09-12T17:14:07.092Z,26.55
2022-09-12T17:16:36.908Z,26.46
2022-09-12T17:19:06.240Z,26.51
2022-09-12T17:21:34.235Z,26.51
2022-09-12T17:24:01.491Z,26.49
2022-09-12T17:26:28.534Z,26.43
2022-09-12T17:28:55.366Z,26.31
2022-09-12T17:31:22.643Z,26.32
2022-09-12T17:33:49.906Z,26.41
2022-09-12T17:36:18.074Z,26.51
2022-09-12T17:38:46.418Z,26.44
2022-09-12T17:41:18.666Z,26.29
2022-09-12T17:43:47.780Z,26.36
2022-09-12T17:46:14.800Z,26.34
2022-09-12T17:48:41.979Z,26.37
2022-09-12T17:51:13.957Z,26.30
2022-09-12T17:53:42.213Z,26.29
2022-09-12T17:56:10.466Z,26.23
2022-09-12T17:58:39.058Z,26.27
2022-09-12T18:01:25.827Z,26.20
2022-09-12T18:03:56.906Z,25.97
2022-09-12T18:06:24.707Z,26.06
2022-09-12T18:08:51.781Z,26.07
2022-09-12T18:11:20.241Z,26.06
2022-09-12T18:13:46.993Z,25.91
2022-09-12T18:16:14.312Z,25.87
2022-09-12T18:18:41.279Z,25.84
2022-09-12T18:21:09.002Z,25.82
2022-09-12T18:23:35.983Z,25.82
2022-09-12T18:26:06.320Z,25.71
2022-09-12T18:28:34.243Z,25.64
2022-09-12T18:31:01.808Z,25.61
2022-09-12T18:33:28.665Z,25.57
2022-09-12T18:35:55.297Z,25.68
2022-09-12T18:38:22.732Z,25.65
2022-09-12T18:40:49.519Z,25.65
2022-09-12T18:43:16.376Z,25.62
2022-09-12T18:45:44.492Z,25.53
2022-09-12T18:48:12.736Z,25.56
2022-09-12T18:50:39.330Z,25.40
2022-09-12T18:53:06.077Z,25.30
2022-09-12T18:55:33.279Z,25.27
2022-09-12T18:58:00.513Z,25.20
2022-09-12T19:00:27.416Z,25.13
2022-09-12T19:02:54.397Z,25.04
2022-09-12T19:05:21.620Z,25.02
2022-09-12T19:07:48.389Z,25.03
2022-09-12T19:10:15.460Z,25.00
2022-09-12T19:12:42.220Z,24.96
2022-09-12T19:15:10.029Z,24.95
2022-09-12T19:17:39.815Z,24.87
2022-09-12T19:20:06.809Z,24.73
2022-09-12T19:22:33.672Z,24.65
2022-09-12T19:25:00.371Z,24.73
2022-09-12T19:27:27.775Z,24.74
2022-09-12T19:29:57.065Z,24.83
2022-09-12T19:32:23.968Z,24.79
2022-09-12T19:34:52.218Z,24.73
2022-09-12T19:37:19.094Z,24.73
2022-09-12T19:39:47.100Z,24.73
2022-09-12T19:42:14.338Z,24.71
2022-09-12T19:44:41.133Z,24.62
2022-09-12T19:47:09.474Z,24.59
2022-09-12T19:49:37.329Z,24.55
2022-09-12T19:52:04.122Z,24.56
2022-09-12T19:54:31.016Z,24.61
2022-09-12T19:56:58.215Z,24.58
2022-09-12T19:59:25.273Z,24.50
2022-09-12T20:01:56.897Z,24.52
2022-09-12T20:04:23.843Z,24.43
2022-09-12T20:06:51.392Z,24.38
2022-09-12T20:09:18.051Z,24.37
2022-09-12T20:11:45.001Z,24.38
2022-09-12T20:14:12.128Z,24.45
2022-09-12T20:16:42.138Z,24.37
2022-09-12T20:19:10.550Z,24.34
2022-09-12T20:21:37.884Z,24.31
2022-09-12T20:24:09.457Z,24.29
2022-09-12T20:26:39.721Z,24.14
2022-09-12T20:29:06.866Z,24.07
2022-09-12T20:31:35.099Z,24.06
2022-09-12T20:34:04.012Z,24.01
2022-09-12T20:36:30.825Z,24.00
2022-09-12T20:39:00.180Z,23.99
2022-09-12T20:41:29.675Z,24.11
2022-09-12T20:43:57.364Z,23.97
2022-09-12T20:46:25.467Z,23.98
2022-09-12T20:48:52.551Z,23.96
2022-09-12T20:51:21.756Z,23.79
2022-09-12T20:53:49.046Z,23.83
2022-09-12T20:56:15.961Z,23.84
2022-09-12T20:58:44.288Z,23.78
2022-09-12T21:01:12.374Z,23.80
2022-09-12T21:03:45.569Z,23.84
2022-09-12T21:06:13.774Z,23.85
2022-09-12T21:08:40.848Z,23.79
2022-09-12T21:11:07.727Z,23.66
2022-09-12T21:13:39.737Z,23.78
2022-09-12T21:16:17.716Z,23.79
2022-09-12T21:18:45.040Z,23.77
2022-09-12T21:21:14.618Z,23.75
2022-09-12T21:23:41.954Z,23.77
2022-09-12T21:26:08.901Z,23.74
2022-09-12T21:28:35.657Z,23.59
2022-09-12T21:31:02.424Z,23.66
2022-09-12T21:33:29.521Z,23.55
2022-09-12T21:36:01.914Z,23.67
2022-09-12T21:38:28.865Z,23.41
2022-09-12T21:41:09.991Z,23.55
2022-09-12T21:43:37.751Z,23.51
2022-09-12T21:46:05.382Z,23.48
2022-09-12T21:48:32.190Z,23.57
2022-09-12T21:51:00.681Z,23.58
2022-09-12T21:53:27.479Z,23.60
2022-09-12T21:55:54.365Z,23.60
2022-09-12T21:58:21.161Z,23.51
2022-09-12T22:00:49.430Z,23.61
2022-09-12T22:03:17.222Z,23.69
2022-09-12T22:05:44.611Z,23.64
2022-09-12T22:08:11.572Z,23.65
2022-09-12T22:10:42.208Z,23.78
2022-09-12T22:13:09.923Z,23.81
2022-09-12T22:15:40.952Z,23.83
2022-09-12T22:18:08.171Z,23.87
2022-09-12T22:20:34.994Z,23.86
2022-09-12T22:23:24.549Z,23.85
2022-09-12T22:25:54.504Z,23.91
2022-09-12T22:28:22.348Z,23.95
2022-09-12T22:30:49.917Z,23.91
2022-09-12T22:33:16.860Z,23.95
2022-09-12T22:35:44.230Z,23.92
2022-09-12T22:38:11.152Z,23.92
2022-09-12T22:40:38.452Z,23.84
2022-09-12T22:43:05.259Z,23.79
2022-09-12T22:45:32.083Z,23.79
2022-09-12T22:48:00.726Z,23.73
2022-09-12T22:50:28.637Z,23.63
2022-09-12T22:52:57.553Z,23.65
2022-09-12T22:55:24.668Z,23.63
2022-09-12T22:57:51.561Z,23.52
2022-09-12T23:00:19.465Z,23.49
2022-09-12T23:02:49.218Z,23.63
2022-09-12T23:05:16.150Z,23.43
2022-09-12T23:07:43.000Z,23.47
2022-09-12T23:10:10.658Z,23.50
2022-09-12T23:12:37.595Z,23.41
2022-09-12T23:15:04.974Z,23.25
2022-09-12T23:17:35.163Z,23.21
2022-09-12T23:20:02.885Z,22.93
2022-09-12T23:22:29.738Z,22.85
2022-09-12T23:24:56.503Z,22.81
2022-09-12T23:27:23.424Z,22.76
2022-09-12T23:29:52.486Z,22.80
2022-09-12T23:32:20.137Z,22.87
2022-09-12T23:34:48.421Z,22.91
2022-09-12T23:37:15.780Z,22.69
2022-09-12T23:39:42.758Z,22.75
2022-09-12T23:42:09.589Z,22.91
2022-09-12T23:44:36.271Z,22.97
2022-09-12T23:47:03.486Z,22.56
2022-09-12T23:49:30.337Z,22.56
2022-09-12T23:51:57.634Z,22.34
2022-09-12T23:54:25.384Z,22.36
2022-09-12T23:56:52.496Z,22.32
2022-09-12T23:59:19.381Z,22.13
